Time;durP1;ratioP1;P1;durP2;ratioP2;P2;SDS_P1;SDS_P2;PMS_P1;PMS_P2;Temp;Humidity;BMP_temperature;BMP_pressure;BME280_temperature;BME280_humidity;BME280_pressure;Samples;Min_cycle;Max_cycle;Signal;HPM_P1;HPM_P2
2022/01/05 00:01:24;;;;;;;;;;;4.00;99.90;;;;;;4977286;28;20047;-72
2022/01/05 00:03:51;;;;;;;0.37;0.37;;;3.90;99.90;;;;;;4978454;28;19926;-72
2022/01/05 00:06:18;;;;;;;0.20;0.20;;;3.80;99.90;;;;;;4980985;28;20113;-73
2022/01/05 00:08:45;;;;;;;;;;;3.70;99.90;;;;;;4981764;28;20050;-72
2022/01/05 00:11:12;;;;;;;0.25;0.25;;;3.50;99.90;;;;;;4980849;28;20197;-72
2022/01/05 00:13:38;;;;;;;;;;;3.50;99.90;;;;;;4980499;28;20136;-71
2022/01/05 00:16:05;;;;;;;0.30;0.30;;;3.40;99.90;;;;;;4995724;28;19972;-71
2022/01/05 00:18:32;;;;;;;0.88;0.30;;;3.30;99.90;;;;;;4995304;28;20336;-72
2022/01/05 00:21:01;;;;;;;;;;;3.20;99.90;;;;;;4980586;28;20070;-71
2022/01/05 00:23:28;;;;;;;0.22;0.22;;;3.10;99.90;;;;;;4980271;28;19996;-71
2022/01/05 00:25:54;;;;;;;0.30;0.20;;;3.10;99.90;;;;;;4981346;28;20116;-71
2022/01/05 00:28:21;;;;;;;0.20;0.20;;;3.00;99.90;;;;;;4995361;28;20050;-71
2022/01/05 00:30:48;;;;;;;0.32;0.32;;;3.00;99.90;;;;;;4979777;28;20461;-72
2022/01/05 00:33:15;;;;;;;0.32;0.32;;;2.90;99.90;;;;;;4995028;28;20046;-72
2022/01/05 00:35:42;;;;;;;;;;;2.90;99.90;;;;;;4979960;28;20046;-71
2022/01/05 00:38:10;;;;;;;0.20;0.20;;;2.80;99.90;;;;;;4981153;28;19937;-72
2022/01/05 00:40:36;;;;;;;0.38;0.30;;;2.70;99.90;;;;;;4979495;28;20552;-72
2022/01/05 00:43:03;;;;;;;;;;;2.60;99.90;;;;;;4981020;28;20442;-71
2022/01/05 00:45:30;;;;;;;0.20;0.20;;;2.50;99.90;;;;;;4979967;28;19925;-72
2022/01/05 00:47:57;;;;;;;0.55;0.30;;;2.50;99.90;;;;;;4980688;28;20069;-72
2022/01/05 00:50:24;;;;;;;0.28;0.25;;;2.40;99.90;;;;;;4979604;28;20136;-72
2022/01/05 00:52:50;;;;;;;;;;;2.30;99.90;;;;;;4987649;28;20041;-72
2022/01/05 00:55:17;;;;;;;0.95;0.30;;;2.20;99.90;;;;;;4961342;28;20245;-73
2022/01/05 00:57:45;;;;;;;;;;;2.10;99.90;;;;;;4960424;28;20125;-72
2022/01/05 01:00:12;;;;;;;0.20;0.20;;;2.00;99.90;;;;;;4959651;28;19937;-74
2022/01/05 01:02:39;;;;;;;0.20;0.20;;;1.90;99.90;;;;;;4974541;28;20078;-73
2022/01/05 01:05:07;;;;;;;0.70;0.30;;;1.90;99.90;;;;;;4959964;28;20069;-72
2022/01/05 01:07:33;;;;;;;0.20;0.20;;;1.80;99.90;;;;;;4959706;28;20125;-72
2022/01/05 01:10:00;;;;;;;;;;;1.80;99.90;;;;;;4960084;28;20050;-72
2022/01/05 01:12:27;;;;;;;0.32;0.32;;;1.80;99.90;;;;;;4960113;28;20165;-73
2022/01/05 01:14:53;;;;;;;;;;;1.70;99.90;;;;;;4959929;28;20175;-72
2022/01/05 01:17:22;;;;;;;0.30;0.30;;;1.70;99.90;;;;;;4974634;28;20377;-72
2022/01/05 01:19:48;;;;;;;0.40;0.40;;;1.70;99.90;;;;;;5000629;28;20050;-72
2022/01/05 01:22:15;;;;;;;0.93;0.50;;;1.70;99.90;;;;;;4979692;28;20089;-72
2022/01/05 01:24:43;;;;;;;0.50;0.50;;;1.60;99.90;;;;;;4978273;28;20082;-72
2022/01/05 01:27:10;;;;;;;;;;;1.60;99.90;;;;;;4978301;28;20050;-72
2022/01/05 01:29:37;;;;;;;0.40;0.40;;;1.60;99.90;;;;;;4978868;28;20431;-71
2022/01/05 01:32:05;;;;;;;0.45;0.45;;;1.60;99.90;;;;;;4979165;28;20050;-72
2022/01/05 01:34:31;;;;;;;0.63;0.63;;;1.60;99.90;;;;;;4978673;28;20446;-72
2022/01/05 01:36:58;;;;;;;;;;;1.60;99.90;;;;;;4979938;28;20100;-71
2022/01/05 01:39:25;;;;;;;0.47;0.47;;;1.60;99.90;;;;;;4977672;28;19929;-71
2022/01/05 01:41:51;;;;;;;;;;;1.60;99.90;;;;;;4979102;28;20709;-71
2022/01/05 01:44:18;;;;;;;0.40;0.40;;;1.60;99.90;;;;;;4978963;28;20028;-71
2022/01/05 01:46:45;;;;;;;1.88;0.85;;;1.60;99.90;;;;;;4979119;28;20100;-72
2022/01/05 01:49:13;;;;;;;0.50;0.50;;;1.60;99.90;;;;;;4978570;28;20060;-71
2022/01/05 01:51:39;;;;;;;0.40;0.40;;;1.70;99.90;;;;;;4978624;28;20145;-72
2022/01/05 01:54:06;;;;;;;;;;;1.70;99.90;;;;;;4986490;28;20046;-71
2022/01/05 01:56:34;;;;;;;0.60;0.60;;;1.70;99.90;;;;;;4978764;28;19929;-72
2022/01/05 01:59:02;;;;;;;0.47;0.47;;;1.70;99.90;;;;;;4977971;28;20104;-72
2022/01/05 02:01:29;;;;;;;1.40;0.55;;;1.70;99.90;;;;;;4978983;28;20065;-71
2022/01/05 02:03:56;;;;;;;0.60;0.60;;;1.80;99.90;;;;;;4978018;28;20050;-71
2022/01/05 02:06:23;;;;;;;0.40;0.38;;;1.80;99.90;;;;;;4979099;28;20042;-72
2022/01/05 02:08:49;;;;;;;;;;;1.80;99.90;;;;;;4978778;28;20810;-71
2022/01/05 02:11:18;;;;;;;1.60;0.75;;;1.80;99.90;;;;;;4978087;28;19953;-71
2022/01/05 02:13:45;;;;;;;0.60;0.60;;;1.80;99.90;;;;;;4978125;28;21182;-71
2022/01/05 02:16:17;;;;;;;;;;;1.90;99.90;;;;;;4979335;28;20101;-71
2022/01/05 02:18:59;;;;;;;0.73;0.70;;;1.90;99.90;;;;;;4993282;28;20296;-72
2022/01/05 02:21:32;;;;;;;1.30;0.90;;;1.90;99.90;;;;;;4978114;28;20101;-72
2022/01/05 02:23:59;;;;;;;2.53;0.88;;;1.90;99.90;;;;;;4978266;28;20058;-72
2022/01/05 02:26:26;;;;;;;1.92;0.80;;;1.90;99.90;;;;;;4977623;28;20315;-72
2022/01/05 02:28:53;;;;;;;;;;;1.90;99.90;;;;;;4978018;28;20046;-71
2022/01/05 02:31:20;;;;;;;1.67;0.88;;;2.00;99.90;;;;;;4978433;28;20320;-71
2022/01/05 02:33:47;;;;;;;1.15;0.90;;;2.00;99.90;;;;;;4977191;28;20054;-72
2022/01/05 02:36:18;;;;;;;0.98;0.85;;;2.00;99.90;;;;;;4978201;28;20042;-73
2022/01/05 02:38:46;;;;;;;0.57;0.52;;;2.00;99.90;;;;;;4977689;28;20046;-72
2022/01/05 02:41:13;;;;;;;0.45;0.40;;;2.00;99.90;;;;;;4977657;28;20749;-73
2022/01/05 02:43:42;;;;;;;0.20;0.20;;;2.10;99.90;;;;;;4977036;28;20053;-72
2022/01/05 02:46:15;;;;;;;0.32;0.32;;;2.10;99.90;;;;;;4978243;28;20078;-73
2022/01/05 02:48:45;;;;;;;0.57;0.30;;;2.10;99.90;;;;;;4977339;28;20136;-73
2022/01/05 02:51:12;;;;;;;2.05;0.35;;;2.10;99.90;;;;;;4977764;28;20097;-73
2022/01/05 02:53:39;;;;;;;0.80;0.40;;;2.10;99.90;;;;;;4984670;28;20436;-73
2022/01/05 02:56:06;;;;;;;0.60;0.32;;;2.10;99.90;;;;;;4977514;28;20046;-73
2022/01/05 02:58:33;;;;;;;;;;;2.10;99.90;;;;;;4979548;28;20050;-74
2022/01/05 03:01:00;;;;;;;1.40;0.50;;;2.20;99.90;;;;;;4977772;28;20376;-73
2022/01/05 03:03:27;;;;;;;0.65;0.32;;;2.20;99.90;;;;;;4976862;28;20113;-73
2022/01/05 03:05:54;;;;;;;;;;;2.20;99.90;;;;;;4977920;28;20437;-74
2022/01/05 03:08:21;;;;;;;1.50;0.40;;;2.20;99.90;;;;;;4977789;28;19969;-74
2022/01/05 03:10:47;;;;;;;0.85;0.20;;;2.20;99.90;;;;;;4977006;28;20116;-73
2022/01/05 03:13:14;;;;;;;0.30;0.30;;;2.20;99.90;;;;;;4977149;28;20768;-74
2022/01/05 03:15:41;;;;;;;;;;;2.20;99.90;;;;;;4977888;28;20280;-74
2022/01/05 03:18:08;;;;;;;0.25;0.25;;;2.20;99.90;;;;;;4990263;28;20379;-73
2022/01/05 03:20:35;;;;;;;;;;;2.30;99.90;;;;;;4979426;28;20042;-74
2022/01/05 03:23:06;;;;;;;0.20;0.20;;;2.30;99.90;;;;;;4977180;28;19957;-73
2022/01/05 03:25:33;;;;;;;0.30;0.30;;;2.30;99.90;;;;;;4976884;28;20468;-74
2022/01/05 03:28:00;;;;;;;0.20;0.20;;;2.30;99.90;;;;;;4975437;28;20125;-74
2022/01/05 03:30:29;;;;;;;1.45;0.20;;;2.30;99.90;;;;;;4977452;28;20497;-74
2022/01/05 03:35:24;;;;;;;0.55;0.20;;;2.30;99.90;;;;;;4976901;28;20104;-74
2022/01/05 03:37:51;;;;;;;0.85;0.28;;;2.30;99.90;;;;;;4977223;28;20046;-74
2022/01/05 03:40:18;;;;;;;1.92;0.50;;;2.40;99.90;;;;;;4975513;28;20137;-74
2022/01/05 03:42:45;;;;;;;0.55;0.28;;;2.30;99.90;;;;;;4974599;28;20057;-73
2022/01/05 03:45:12;;;;;;;;;;;2.30;99.90;;;;;;4977225;28;20487;-74
2022/01/05 03:47:39;;;;;;;0.60;0.20;;;2.40;99.90;;;;;;4976959;28;19925;-74
2022/01/05 03:50:06;;;;;;;0.30;0.30;;;2.30;99.90;;;;;;4976276;28;20046;-74
2022/01/05 03:52:33;;;;;;;0.10;0.10;;;2.30;99.90;;;;;;4981823;28;20045;-74
2022/01/05 03:55:01;;;;;;;0.30;0.30;;;2.40;99.90;;;;;;4978483;28;20057;-74
2022/01/05 03:57:28;;;;;;;0.35;0.35;;;2.40;99.90;;;;;;4976721;28;20049;-74
2022/01/05 03:59:55;;;;;;;;;;;2.40;99.90;;;;;;4977435;28;20049;-74
2022/01/05 04:02:22;;;;;;;0.40;0.40;;;2.40;99.90;;;;;;4981390;28;19933;-74
2022/01/05 04:04:49;;;;;;;0.30;0.30;;;2.40;99.90;;;;;;4957213;28;20501;-74
2022/01/05 04:07:16;;;;;;;;;;;2.40;99.90;;;;;;4957804;28;20506;-74
2022/01/05 04:09:43;;;;;;;0.60;0.60;;;2.40;99.90;;;;;;4956669;28;19930;-73
2022/01/05 04:12:10;;;;;;;1.95;0.50;;;2.50;99.90;;;;;;4957422;28;20053;-74
2022/01/05 04:14:37;;;;;;;1.23;0.50;;;2.50;99.90;;;;;;4956968;28;20039;-74
2022/01/05 04:17:04;;;;;;;;;;;2.50;99.90;;;;;;4967851;28;20341;-74
2022/01/05 04:19:31;;;;;;;0.40;0.25;;;2.50;99.90;;;;;;4986790;28;20288;-74
2022/01/05 04:21:58;;;;;;;0.30;0.30;;;2.50;99.90;;;;;;4976663;28;20039;-73
2022/01/05 04:24:25;;;;;;;0.20;0.20;;;2.50;99.90;;;;;;4976070;28;20054;-74
2022/01/05 04:26:52;;;;;;;;;;;2.50;99.90;;;;;;4977400;28;20160;-74
2022/01/05 04:29:19;;;;;;;0.20;0.20;;;2.50;99.90;;;;;;4976860;28;19933;-74
2022/01/05 04:31:45;;;;;;;;;;;2.50;99.90;;;;;;4977448;28;20081;-73
2022/01/05 04:34:12;;;;;;;0.70;0.50;;;2.50;99.90;;;;;;4977757;28;19981;-74
2022/01/05 04:36:59;;;;;;;0.20;0.20;;;2.50;99.90;;;;;;4977386;28;20129;-75
2022/01/05 04:39:26;;;;;;;;;;;2.50;99.90;;;;;;4977760;28;20104;-73
2022/01/05 04:41:53;;;;;;;0.40;0.40;;;2.50;99.90;;;;;;4977746;28;19934;-74
2022/01/05 04:44:19;;;;;;;;;;;2.50;99.90;;;;;;4977853;28;20101;-74
2022/01/05 04:46:46;;;;;;;1.35;0.35;;;2.60;99.90;;;;;;4977320;28;20749;-73
2022/01/05 04:49:13;;;;;;;0.68;0.47;;;2.60;99.90;;;;;;4977150;28;20127;-74
2022/01/05 04:51:39;;;;;;;;;;;2.60;99.90;;;;;;4981683;28;20468;-74
2022/01/05 04:54:06;;;;;;;0.30;0.30;;;2.60;99.90;;;;;;4988275;28;19964;-73
2022/01/05 04:56:33;;;;;;;;;;;2.70;99.90;;;;;;4981561;28;20058;-74
2022/01/05 04:59:00;;;;;;;0.30;0.30;;;2.70;99.90;;;;;;4979314;28;19944;-74
2022/01/05 05:01:27;;;;;;;0.20;0.20;;;2.70;99.90;;;;;;4979890;28;20301;-74
2022/01/05 05:03:54;;;;;;;0.10;0.10;;;2.80;99.90;;;;;;4979832;28;20149;-74
2022/01/05 05:06:22;;;;;;;;;;;2.80;99.90;;;;;;4980798;28;20574;-74
2022/01/05 05:08:50;;;;;;;0.20;0.20;;;2.80;99.90;;;;;;4979141;28;19984;-74
2022/01/05 05:11:16;;;;;;;0.32;0.32;;;2.80;99.90;;;;;;4979770;28;20113;-74
2022/01/05 05:13:43;;;;;;;0.10;0.10;;;2.80;99.90;;;;;;4979380;28;20085;-74
2022/01/05 05:16:10;;;;;;;;;;;2.80;99.90;;;;;;4979954;28;20046;-74
2022/01/05 05:18:37;;;;;;;0.20;0.20;;;2.80;99.90;;;;;;4995162;28;20346;-74
2022/01/05 05:21:03;;;;;;;;;;;2.80;99.90;;;;;;4979520;28;20359;-73
2022/01/05 05:23:30;;;;;;;0.20;0.20;;;2.90;99.90;;;;;;4979475;28;20209;-74
2022/01/05 05:25:57;;;;;;;0.10;0.10;;;2.80;99.90;;;;;;4979774;28;20061;-74
2022/01/05 05:28:24;;;;;;;0.20;0.20;;;2.90;99.90;;;;;;4980287;28;20101;-74
2022/01/05 05:30:50;;;;;;;0.10;0.10;;;2.90;99.90;;;;;;4979890;28;20140;-74
2022/01/05 05:33:17;;;;;;;0.38;0.25;;;2.90;99.90;;;;;;4980272;28;20050;-73
2022/01/05 05:35:44;;;;;;;;;;;2.90;99.90;;;;;;4980737;28;20152;-72
2022/01/05 05:38:12;;;;;;;1.65;0.30;;;2.90;99.90;;;;;;4979928;28;19933;-73
2022/01/05 05:40:38;;;;;;;0.85;0.85;;;2.90;99.90;;;;;;4978770;28;20038;-73
2022/01/05 05:43:05;;;;;;;0.52;0.30;;;2.90;99.90;;;;;;4978991;28;20340;-73
2022/01/05 05:45:32;;;;;;;;;;;2.90;99.90;;;;;;4979132;28;20069;-73
2022/01/05 05:47:59;;;;;;;0.15;0.15;;;2.90;99.90;;;;;;4979446;28;19984;-73
2022/01/05 05:50:25;;;;;;;;;;;2.90;99.90;;;;;;4978259;28;20475;-73
2022/01/05 05:52:53;;;;;;;0.20;0.20;;;2.90;99.90;;;;;;4985080;28;19971;-73
2022/01/05 05:55:20;;;;;;;0.30;0.30;;;2.90;99.90;;;;;;4978889;28;20042;-74
2022/01/05 05:57:47;;;;;;;;;;;2.90;99.90;;;;;;4979213;28;20039;-73
2022/01/05 06:00:14;;;;;;;0.38;0.28;;;2.90;99.90;;;;;;4978134;28;20189;-73
2022/01/05 06:02:41;;;;;;;0.30;0.30;;;2.90;99.90;;;;;;4978712;28;20042;-73
2022/01/05 06:05:08;;;;;;;0.88;0.30;;;2.90;99.90;;;;;;4979523;28;20057;-73
2022/01/05 06:07:35;;;;;;;0.30;0.30;;;2.90;99.90;;;;;;4977826;28;20528;-73
2022/01/05 06:10:02;;;;;;;;;;;2.90;99.90;;;;;;4979046;28;20574;-73
2022/01/05 06:12:29;;;;;;;0.30;0.30;;;2.90;99.90;;;;;;4978395;28;19925;-73
2022/01/05 06:14:56;;;;;;;0.40;0.40;;;2.90;99.90;;;;;;4976460;28;20070;-72
2022/01/05 06:17:22;;;;;;;0.30;0.30;;;2.90;99.90;;;;;;4986192;28;20038;-72
2022/01/05 06:19:49;;;;;;;;;;;2.90;99.90;;;;;;4986954;28;20397;-72
2022/01/05 06:22:17;;;;;;;0.52;0.52;;;2.80;99.90;;;;;;4977982;28;20444;-72
2022/01/05 06:24:48;;;;;;;0.75;0.35;;;2.80;99.90;;;;;;4978254;28;20042;-72
2022/01/05 06:27:15;;;;;;;0.65;0.40;;;2.80;99.90;;;;;;4979125;28;20038;-72
2022/01/05 06:29:42;;;;;;;0.40;0.40;;;2.80;99.90;;;;;;4976873;28;20073;-72
2022/01/05 06:32:09;;;;;;;7.28;1.38;;;2.80;99.90;;;;;;4978289;28;20050;-72
2022/01/05 06:34:36;;;;;;;3.42;0.40;;;2.80;99.90;;;;;;4977731;28;20109;-72
2022/01/05 06:37:04;;;;;;;0.47;0.35;;;2.80;99.90;;;;;;4977835;28;20050;-72
2022/01/05 06:39:31;;;;;;;;;;;2.80;99.90;;;;;;4978010;28;20444;-66
2022/01/05 06:41:57;;;;;;;0.40;0.40;;;2.80;99.90;;;;;;4977706;28;20624;-61
2022/01/05 06:44:24;;;;;;;;;;;2.80;99.90;;;;;;4978150;28;20076;-61
2022/01/05 06:46:51;;;;;;;0.25;0.25;;;2.80;99.90;;;;;;4977809;28;20147;-60
2022/01/05 06:49:19;;;;;;;0.98;0.50;;;2.80;99.90;;;;;;4992372;28;20057;-60
2022/01/05 06:51:46;;;;;;;0.80;0.60;;;2.80;99.90;;;;;;4976392;28;20060;-60
2022/01/05 06:54:12;;;;;;;2.08;0.93;;;2.80;99.90;;;;;;4984595;28;20053;-60
2022/01/05 06:56:39;;;;;;;2.42;0.90;;;2.80;99.90;;;;;;4976943;28;20083;-60
2022/01/05 06:59:06;;;;;;;0.70;0.60;;;2.80;99.90;;;;;;4976828;28;20092;-60
2022/01/05 07:01:32;;;;;;;;;;;2.80;99.90;;;;;;4979041;28;20104;-60
2022/01/05 07:03:59;;;;;;;1.30;0.90;;;2.80;99.90;;;;;;4978011;28;20281;-60
2022/01/05 07:06:26;;;;;;;1.30;0.80;;;2.80;99.90;;;;;;4975398;28;20053;-60
2022/01/05 07:08:53;;;;;;;;;;;2.80;99.90;;;;;;4976509;28;20642;-60
2022/01/05 07:11:20;;;;;;;1.45;0.93;;;2.80;99.90;;;;;;4977295;28;20304;-61
2022/01/05 07:13:46;;;;;;;;;;;2.80;99.90;;;;;;4976724;28;20180;-59
2022/01/05 07:16:13;;;;;;;0.60;0.60;;;2.80;99.90;;;;;;4976863;28;20027;-60
2022/01/05 07:18:41;;;;;;;0.60;0.60;;;2.80;99.90;;;;;;4991833;28;20555;-60
2022/01/05 07:21:08;;;;;;;0.85;0.77;;;2.90;99.90;;;;;;4976222;28;20038;-60
2022/01/05 07:23:35;;;;;;;;;;;2.90;99.90;;;;;;4977393;28;20500;-60
2022/01/05 07:26:01;;;;;;;0.70;0.60;;;2.80;99.90;;;;;;4976289;28;20402;-60
2022/01/05 07:28:28;;;;;;;;;;;2.90;99.90;;;;;;4977158;28;20104;-60
2022/01/05 07:30:55;;;;;;;0.98;0.93;;;2.80;99.90;;;;;;4976361;28;19938;-60
2022/01/05 07:33:22;;;;;;;;;;;2.90;99.90;;;;;;4977591;28;20078;-59
2022/01/05 07:35:48;;;;;;;0.93;0.82;;;2.90;99.90;;;;;;4975898;28;20289;-60
2022/01/05 07:38:15;;;;;;;1.00;0.75;;;2.90;99.90;;;;;;4977292;28;20042;-59
2022/01/05 07:40:42;;;;;;;;;;;2.90;99.90;;;;;;4974980;28;20084;-56
2022/01/05 07:43:09;;;;;;;0.95;0.60;;;2.90;99.90;;;;;;4987787;28;20079;-59
2022/01/05 07:45:35;;;;;;;;;;;2.90;99.90;;;;;;4995736;28;20046;-57
2022/01/05 07:48:04;;;;;;;0.30;0.30;;;2.90;99.90;;;;;;4977391;28;19928;-57
2022/01/05 07:50:31;;;;;;;1.00;0.68;;;2.90;99.90;;;;;;4975620;28;20444;-59
2022/01/05 07:53:01;;;;;;;0.98;0.98;;;2.90;99.90;;;;;;4976759;28;20042;-56
2022/01/05 07:55:30;;;;;;;0.50;0.50;;;2.90;99.90;;;;;;4995804;28;20438;-56
2022/01/05 07:57:59;;;;;;;0.50;0.50;;;2.90;99.90;;;;;;4995796;28;20065;-57
2022/01/05 08:00:26;;;;;;;4.80;0.60;;;2.90;99.90;;;;;;4995798;28;20586;-56
2022/01/05 08:02:53;;;;;;;1.25;0.65;;;2.90;99.90;;;;;;4994470;28;20042;-56
2022/01/05 08:05:20;;;;;;;0.80;0.63;;;2.90;99.90;;;;;;4980762;28;20507;-56
2022/01/05 08:07:47;;;;;;;0.65;0.65;;;2.90;99.90;;;;;;4977757;28;20050;-55
2022/01/05 08:10:14;;;;;;;;;;;2.90;99.90;;;;;;4972134;28;20050;-55
2022/01/05 08:12:41;;;;;;;1.73;0.90;;;2.90;99.90;;;;;;4973725;28;19942;-55
2022/01/05 08:15:10;;;;;;;0.85;0.85;;;2.80;99.90;;;;;;4986481;28;20039;-57
2022/01/05 08:17:41;;;;;;;0.93;0.93;;;2.80;99.90;;;;;;4976514;28;20060;-57
2022/01/05 08:20:10;;;;;;;0.82;0.82;;;2.80;99.90;;;;;;4979536;28;20050;-58
2022/01/05 08:22:40;;;;;;;0.90;0.90;;;2.80;99.90;;;;;;4976066;28;20347;-58
2022/01/05 08:25:09;;;;;;;1.00;1.00;;;2.80;99.90;;;;;;4977321;28;20326;-58
2022/01/05 08:27:37;;;;;;;1.42;1.00;;;2.80;99.90;;;;;;4979121;28;20119;-58
2022/01/05 08:30:05;;;;;;;1.00;0.90;;;2.70;99.90;;;;;;4979268;28;20124;-58
2022/01/05 08:32:34;;;;;;;1.48;1.30;;;2.60;99.90;;;;;;4979226;28;20452;-58
2022/01/05 08:35:01;;;;;;;1.45;1.33;;;2.60;99.90;;;;;;4979284;28;20054;-58
2022/01/05 08:37:28;;;;;;;;;;;2.60;99.90;;;;;;4980105;28;20113;-58
2022/01/05 08:39:54;;;;;;;1.67;1.58;;;2.60;99.90;;;;;;4978476;28;20158;-58
2022/01/05 08:42:21;;;;;;;;;;;2.50;99.90;;;;;;4978614;28;20046;-57
2022/01/05 08:44:48;;;;;;;1.92;1.50;;;2.50;99.90;;;;;;4978635;28;19995;-58
2022/01/05 08:47:15;;;;;;;;;;;2.40;99.90;;;;;;4980273;28;20055;-58
2022/01/05 08:49:42;;;;;;;1.37;1.20;;;2.40;99.90;;;;;;4977794;28;20132;-58
2022/01/05 08:52:08;;;;;;;;;;;2.30;99.90;;;;;;4979807;28;20106;-58
2022/01/05 08:54:35;;;;;;;1.27;1.17;;;2.30;99.90;;;;;;4992390;28;19925;-59
2022/01/05 08:57:04;;;;;;;1.42;1.10;;;2.20;99.90;;;;;;4997341;28;20038;-59
2022/01/05 08:59:31;;;;;;;1.35;1.25;;;2.20;99.90;;;;;;4998011;28;20104;-59
2022/01/05 09:01:57;;;;;;;;;;;2.10;99.90;;;;;;4998590;28;20104;-56
2022/01/05 09:04:26;;;;;;;1.20;1.10;;;2.10;99.90;;;;;;4990215;28;20021;-59
2022/01/05 09:06:53;;;;;;;1.92;1.73;;;2.00;99.90;;;;;;4979314;28;20116;-59
2022/01/05 09:09:20;;;;;;;;;;;2.00;99.90;;;;;;4979170;28;20054;-59
2022/01/05 09:11:47;;;;;;;1.48;1.00;;;2.00;99.90;;;;;;4978464;28;20719;-59
2022/01/05 09:14:14;;;;;;;2.13;1.10;;;2.00;99.90;;;;;;4978139;28;20332;-58
2022/01/05 09:16:40;;;;;;;1.33;1.20;;;2.00;99.90;;;;;;4980899;28;20503;-59
2022/01/05 09:19:07;;;;;;;1.20;1.10;;;1.90;99.90;;;;;;4990973;28;20030;-59
2022/01/05 09:21:35;;;;;;;0.98;0.98;;;1.90;99.90;;;;;;4978943;28;20050;-58
2022/01/05 09:24:02;;;;;;;1.05;1.00;;;1.80;99.90;;;;;;4998409;28;20052;-60
2022/01/05 09:26:28;;;;;;;1.13;0.90;;;1.70;99.90;;;;;;4998580;28;20094;-57
2022/01/05 09:28:55;;;;;;;;;;;1.70;99.90;;;;;;4982740;28;20042;-57
2022/01/05 09:31:22;;;;;;;0.68;0.68;;;1.60;99.90;;;;;;4979656;28;19933;-56
2022/01/05 09:33:49;;;;;;;1.67;0.85;;;1.50;99.90;;;;;;4979451;28;20054;-56
2022/01/05 09:36:29;;;;;;;;;;;1.40;99.90;;;;;;4979116;28;20101;-56
2022/01/05 09:41:59;;;;;;;3.00;0.55;;;1.30;99.90;;;;;;4977358;28;20281;-56
2022/01/05 09:44:34;;;;;;;0.40;0.40;;;1.20;99.90;;;;;;4998027;28;20064;-56
2022/01/05 09:47:31;;;;;;;0.63;0.40;;;1.20;99.90;;;;;;4998074;28;20053;-56
2022/01/05 09:50:06;;;;;;;0.95;0.40;;;1.20;99.90;;;;;;4996378;28;20050;-56
2022/01/05 09:52:34;;;;;;;0.60;0.60;;;1.10;99.90;;;;;;4968780;28;20037;-55
2022/01/05 09:55:02;;;;;;;0.70;0.70;;;1.10;99.90;;;;;;4979327;28;20786;-58
2022/01/05 09:57:29;;;;;;;0.85;0.70;;;1.00;99.90;;;;;;4978196;28;20580;-58
2022/01/05 09:59:57;;;;;;;0.60;0.60;;;1.00;99.90;;;;;;4977581;28;20042;-58
2022/01/05 10:02:24;;;;;;;1.23;0.80;;;0.90;99.90;;;;;;4978152;28;20527;-55
2022/01/05 10:04:52;;;;;;;2.05;0.80;;;0.90;99.90;;;;;;4975724;28;20056;-56
2022/01/05 10:07:19;;;;;;;1.77;1.08;;;0.90;99.90;;;;;;4977858;28;20077;-56
2022/01/05 10:09:46;;;;;;;1.05;0.95;;;1.00;99.90;;;;;;4976775;28;20124;-59
2022/01/05 10:12:13;;;;;;;1.15;1.05;;;1.00;99.90;;;;;;4977618;28;20373;-59
2022/01/05 10:14:41;;;;;;;0.95;0.80;;;1.00;99.90;;;;;;4977246;28;20050;-59
2022/01/05 10:17:11;;;;;;;1.00;0.80;;;0.90;99.90;;;;;;4982809;28;20111;-59
2022/01/05 10:19:39;;;;;;;0.70;0.70;;;0.90;99.90;;;;;;4986134;28;20039;-59
2022/01/05 10:22:28;;;;;;;1.65;0.77;;;0.80;99.90;;;;;;4977143;28;20046;-59
2022/01/05 10:24:56;;;;;;;0.98;0.55;;;0.70;99.90;;;;;;4977763;28;20054;-59
2022/01/05 10:27:24;;;;;;;1.63;0.50;;;0.60;99.90;;;;;;4977160;28;20053;-59
2022/01/05 10:30:12;;;;;;;1.63;0.50;;;0.50;99.90;;;;;;4977155;28;20042;-58
2022/01/05 10:32:42;;;;;;;;;;;0.40;99.90;;;;;;4977746;28;20053;-58
2022/01/05 10:35:25;;;;;;;5.93;1.08;;;0.30;99.90;;;;;;4975936;28;19925;-58
2022/01/05 10:38:00;;;;;;;1.02;0.50;;;0.30;99.90;;;;;;4977358;28;20054;-59
2022/01/05 10:40:28;;;;;;;1.85;0.65;;;0.20;99.90;;;;;;4976964;28;20455;-59
2022/01/05 10:42:56;;;;;;;3.38;0.70;;;0.20;99.90;;;;;;4978050;28;20338;-59
2022/01/05 10:45:45;;;;;;;0.60;0.60;;;0.20;99.90;;;;;;4976625;28;20054;-59
2022/01/05 10:48:16;;;;;;;1.27;0.55;;;0.20;99.90;;;;;;4977623;28;20351;-57
2022/01/05 10:50:44;;;;;;;3.05;0.85;;;0.10;99.90;;;;;;4977217;28;20042;-57
2022/01/05 10:53:18;;;;;;;5.53;0.80;;;0.10;99.90;;;;;;4984980;28;20045;-58
2022/01/05 10:55:47;;;;;;;1.40;0.82;;;0.00;99.90;;;;;;4976557;28;20474;-57
2022/01/05 10:58:16;;;;;;;3.40;1.08;;;0.00;99.90;;;;;;4977619;28;20092;-57
2022/01/05 11:00:52;;;;;;;5.20;0.98;;;0.00;99.90;;;;;;4976248;28;20482;-57
2022/01/05 11:03:21;;;;;;;2.30;1.25;;;0.00;99.90;;;;;;4976266;28;20460;-58
2022/01/05 11:06:19;;;;;;;2.15;1.27;;;-0.10;99.90;;;;;;4957803;28;20138;-56
2022/01/05 11:08:50;;;;;;;6.07;1.77;;;-0.10;99.90;;;;;;4954969;28;20097;-60
2022/01/05 11:11:36;;;;;;;2.42;1.00;;;-0.10;99.90;;;;;;4957146;28;20050;-60
2022/01/05 11:14:17;;;;;;;7.15;0.90;;;-0.10;99.90;;;;;;4956210;28;20046;-61
2022/01/05 11:16:47;;;;;;;1.85;0.98;;;-0.10;99.90;;;;;;4963765;28;20519;-61
2022/01/05 11:19:21;;;;;;;1.67;1.20;;;-0.10;99.90;;;;;;4988449;28;20346;-60
2022/01/05 11:22:13;;;;;;;1.80;1.08;;;-0.10;99.90;;;;;;4975099;28;20117;-60
2022/01/05 11:24:44;;;;;;;2.05;0.80;;;-0.20;99.90;;;;;;4975832;28;20039;-60
2022/01/05 11:27:14;;;;;;;5.97;1.00;;;-0.20;99.90;;;;;;4976466;28;20222;-60
2022/01/05 11:29:42;;;;;;;1.83;1.23;;;-0.10;99.90;;;;;;4975359;28;20423;-60
2022/01/05 11:32:11;;;;;;;2.08;1.00;;;-0.10;99.90;;;;;;4975967;28;20714;-60
2022/01/05 11:34:38;;;;;;;2.58;1.00;;;-0.10;99.90;;;;;;4976467;28;20038;-60
2022/01/05 11:37:07;;;;;;;7.00;1.77;;;-0.10;99.90;;;;;;4974217;28;20124;-60
2022/01/05 11:39:40;;;;;;;5.03;1.75;;;-0.10;99.90;;;;;;4975458;28;20540;-60
2022/01/05 11:42:10;;;;;;;2.75;1.42;;;-0.10;99.90;;;;;;4976042;28;20034;-60
2022/01/05 11:44:46;;;;;;;4.13;1.42;;;-0.10;99.90;;;;;;4975962;28;20046;-60
2022/01/05 11:47:23;;;;;;;3.28;1.30;;;-0.10;99.90;;;;;;4976142;28;20050;-60
2022/01/05 11:49:55;;;;;;;3.65;1.65;;;-0.10;99.90;;;;;;4975715;28;20054;-60
2022/01/05 11:52:55;;;;;;;9.80;2.00;;;-0.10;99.90;;;;;;4980238;28;20131;-58
2022/01/05 11:55:23;;;;;;;4.53;1.60;;;0.00;99.90;;;;;;4956328;28;20042;-57
2022/01/05 11:58:18;;;;;;;3.65;1.63;;;0.00;99.90;;;;;;4957550;28;20069;-57
2022/01/05 12:00:48;;;;;;;4.95;1.80;;;0.00;99.90;;;;;;4955529;28;20521;-57
2022/01/05 12:03:59;;;;;;;2.05;1.35;;;0.10;99.90;;;;;;4956402;28;20225;-58
2022/01/05 12:06:44;;;;;;;6.75;1.95;;;0.10;99.90;;;;;;4956730;28;20100;-56
2022/01/05 12:09:28;;;;;;;2.97;1.58;;;0.20;99.90;;;;;;4955850;28;20120;-57
2022/01/05 12:12:02;;;;;;;2.55;1.75;;;0.20;99.90;;;;;;4956906;28;20354;-56
2022/01/05 12:14:35;;;;;;;4.65;1.58;;;0.30;99.90;;;;;;4956421;28;20155;-57
2022/01/05 12:17:02;;;;;;;1.95;1.80;;;0.30;99.90;;;;;;4965209;28;20042;-56
2022/01/05 12:19:34;;;;;;;;;;;0.40;99.90;;;;;;4987198;28;20042;-60
2022/01/05 12:22:13;;;;;;;4.53;2.13;;;0.50;99.90;;;;;;4975249;28;19922;-59
2022/01/05 12:25:03;;;;;;;6.20;2.28;;;0.50;99.90;;;;;;4975972;28;20050;-60
2022/01/05 12:27:48;;;;;;;5.65;2.78;;;0.60;99.90;;;;;;4975351;28;20073;-60
2022/01/05 12:30:18;;;;;;;6.30;3.00;;;0.70;99.90;;;;;;4975629;28;20475;-60
2022/01/05 12:32:47;;;;;;;6.45;4.05;;;0.70;99.90;;;;;;4989807;28;20377;-61
2022/01/05 12:35:14;;;;;;;7.90;3.80;;;0.80;99.90;;;;;;4975520;28;20559;-60
2022/01/05 12:37:46;;;;;;;5.18;3.40;;;0.80;99.90;;;;;;4976242;28;20160;-61
2022/01/05 12:40:22;;;;;;;6.25;3.40;;;0.90;99.90;;;;;;4974727;28;20046;-60
2022/01/05 12:43:08;;;;;;;8.40;4.03;;;0.90;99.90;;;;;;4975717;28;20507;-61
2022/01/05 12:45:53;;;;;;;8.05;3.30;;;1.00;99.90;;;;;;4974684;28;20170;-61
2022/01/05 12:48:32;;;;;;;7.47;3.03;;;1.00;99.90;;;;;;4975849;28;20050;-60
2022/01/05 12:51:17;;;;;;;8.88;2.60;;;1.00;99.90;;;;;;4974887;28;20047;-60
2022/01/05 12:54:05;;;;;;;3.92;2.85;;;1.10;99.90;;;;;;4982901;28;20049;-61
2022/01/05 12:56:35;;;;;;;7.40;2.92;;;1.10;99.90;;;;;;4975516;28;20048;-60
2022/01/05 12:59:08;;;;;;;4.72;2.80;;;1.10;99.90;;;;;;4974906;28;20054;-60
2022/01/05 13:01:35;;;;;;;8.32;2.97;;;1.00;99.90;;;;;;4975222;28;20556;-61
2022/01/05 13:04:11;;;;;;;4.13;2.97;;;1.10;99.90;;;;;;4975494;28;20038;-60
2022/01/05 13:06:40;;;;;;;7.13;3.60;;;1.10;99.90;;;;;;4975773;28;20366;-60
2022/01/05 13:09:10;;;;;;;5.72;2.95;;;1.20;99.90;;;;;;4974872;28;20113;-60
2022/01/05 13:11:41;;;;;;;5.90;2.85;;;1.10;99.90;;;;;;4979368;28;20690;-60
2022/01/05 13:14:20;;;;;;;4.35;2.83;;;1.10;99.90;;;;;;4980005;28;20097;-60
2022/01/05 13:16:58;;;;;;;4.88;2.50;;;1.20;99.90;;;;;;4982188;28;20707;-65
2022/01/05 13:19:34;;;;;;;5.10;2.47;;;1.20;99.90;;;;;;4989906;28;20046;-59
2022/01/05 13:22:07;;;;;;;7.25;3.75;;;1.20;99.90;;;;;;4979942;28;20054;-59
2022/01/05 13:24:49;;;;;;;7.50;4.10;;;1.20;99.90;;;;;;4972676;28;20141;-59
2022/01/05 13:27:38;;;;;;;10.48;3.35;;;1.30;99.90;;;;;;4992981;28;20108;-63
2022/01/05 13:30:07;;;;;;;10.82;4.35;;;1.30;99.90;;;;;;4995507;28;20049;-62